createdAt,value
2022-09-15T00:00:38.976Z,12.3
2022-09-15T00:01:39.620Z,12.3
2022-09-15T00:02:40.431Z,12.4
2022-09-15T00:03:41.055Z,12.4
2022-09-15T00:04:41.654Z,12.3
2022-09-15T00:05:42.251Z,12.3
2022-09-15T00:06:42.849Z,12.3
2022-09-15T00:07:43.448Z,12.3
2022-09-15T00:08:44.046Z,12.4
2022-09-15T00:09:44.646Z,12.2
2022-09-15T00:10:45.262Z,12.3
2022-09-15T00:11:45.877Z,12.2
2022-09-15T00:12:46.473Z,12.3
2022-09-15T00:13:47.075Z,12.3
2022-09-15T00:14:47.669Z,12.3
2022-09-15T00:15:48.271Z,12.3
2022-09-15T00:16:48.919Z,12.4
2022-09-15T00:17:49.479Z,12.4
2022-09-15T00:18:50.075Z,12.2
2022-09-15T00:19:50.674Z,12.3
2022-09-15T00:20:51.273Z,12.3
2022-09-15T00:21:51.870Z,12.2
2022-09-15T00:22:52.464Z,12.3
2022-09-15T00:23:53.065Z,12.3
2022-09-15T00:24:53.661Z,12.2
2022-09-15T00:25:54.258Z,12.3
2022-09-15T00:26:54.861Z,12.3
2022-09-15T00:27:55.460Z,12.3
2022-09-15T00:28:56.061Z,12.3
2022-09-15T00:29:56.654Z,12.3
2022-09-15T00:30:57.263Z,12.3
2022-09-15T00:31:57.850Z,12.2
2022-09-15T00:32:58.447Z,12.2
2022-09-15T00:33:59.049Z,12.2
2022-09-15T00:34:59.644Z,12.2
2022-09-15T00:36:00.242Z,12.2
2022-09-15T00:37:00.838Z,12.2
2022-09-15T00:38:01.435Z,12.3
2022-09-15T00:39:02.031Z,12.2
2022-09-15T00:40:02.670Z,12.1
2022-09-15T00:41:03.225Z,12.3
2022-09-15T00:42:03.822Z,12.2
2022-09-15T00:43:04.419Z,12.2
2022-09-15T00:44:05.021Z,12.2
2022-09-15T00:45:05.618Z,12.2
2022-09-15T00:46:06.299Z,12.2
2022-09-15T00:47:19.378Z,12.3
2022-09-15T00:48:08.440Z,12.3
2022-09-15T00:49:09.037Z,12.2
2022-09-15T00:50:09.636Z,12.2
2022-09-15T00:51:10.258Z,12.2
2022-09-15T00:52:10.852Z,12.2
2022-09-15T00:53:11.446Z,12.2
2022-09-15T00:54:12.043Z,12.2
2022-09-15T00:55:12.639Z,12.2
2022-09-15T00:56:13.237Z,12.2
2022-09-15T00:57:13.835Z,12.2
2022-09-15T00:58:14.432Z,12.1
2022-09-15T00:59:15.049Z,12.2
2022-09-15T01:00:15.649Z,12.1
2022-09-15T01:01:16.295Z,12.2
2022-09-15T01:02:17.020Z,12.1
2022-09-15T01:03:17.526Z,12.1
2022-09-15T01:04:18.123Z,12.1
2022-09-15T01:05:18.718Z,12.2
2022-09-15T01:06:19.316Z,12.1
2022-09-15T01:07:19.914Z,12.0
2022-09-15T01:08:20.511Z,12.0
2022-09-15T01:09:21.109Z,12.0
2022-09-15T01:10:21.709Z,12.0
2022-09-15T01:11:22.311Z,12.0
2022-09-15T01:12:22.904Z,12.0
2022-09-15T01:13:23.501Z,11.9
2022-09-15T01:14:24.102Z,11.8
2022-09-15T01:15:24.698Z,11.9
2022-09-15T01:16:25.340Z,11.8
2022-09-15T01:17:25.894Z,11.8
2022-09-15T01:18:26.493Z,11.8
2022-09-15T01:19:27.091Z,11.8
2022-09-15T01:20:27.694Z,11.8
2022-09-15T01:21:28.283Z,11.8
2022-09-15T01:22:28.881Z,11.8
2022-09-15T01:23:29.477Z,11.8
2022-09-15T01:24:30.077Z,11.8
2022-09-15T01:25:30.672Z,11.8
2022-09-15T01:26:31.275Z,11.8
2022-09-15T01:27:42.133Z,11.8
2022-09-15T01:28:33.458Z,11.8
2022-09-15T01:29:34.054Z,11.8
2022-09-15T01:30:34.654Z,11.8
2022-09-15T01:31:35.284Z,11.8
2022-09-15T01:32:35.855Z,11.8
2022-09-15T01:33:36.451Z,11.9
2022-09-15T01:34:37.050Z,11.9
2022-09-15T01:35:37.648Z,12.0
2022-09-15T01:36:38.245Z,12.0
2022-09-15T01:37:38.841Z,12.0
2022-09-15T01:38:39.442Z,12.0
2022-09-15T01:39:40.038Z,12.0
2022-09-15T01:40:40.640Z,12.1
2022-09-15T01:41:41.238Z,12.1
2022-09-15T01:42:41.839Z,12.1
2022-09-15T01:43:42.436Z,12.1
2022-09-15T01:44:43.035Z,12.1
2022-09-15T01:45:43.709Z,12.2
2022-09-15T01:46:44.340Z,12.1
2022-09-15T01:47:44.939Z,12.2
2022-09-15T01:48:45.540Z,12.1
2022-09-15T01:49:46.147Z,12.1
2022-09-15T01:50:46.758Z,12.1
2022-09-15T01:51:47.356Z,12.2
2022-09-15T01:52:47.957Z,12.2
2022-09-15T01:53:48.554Z,12.2
2022-09-15T01:54:49.162Z,12.2
2022-09-15T01:55:49.786Z,12.2
2022-09-15T01:56:50.380Z,12.2
2022-09-15T01:57:50.977Z,12.2
2022-09-15T01:58:51.590Z,12.2
2022-09-15T01:59:52.178Z,12.2
2022-09-15T02:00:52.851Z,12.2
2022-09-15T02:01:53.465Z,12.2
2022-09-15T02:02:54.052Z,12.2
2022-09-15T02:03:54.652Z,12.2
2022-09-15T02:04:55.270Z,12.2
2022-09-15T02:05:55.869Z,12.2
2022-09-15T02:06:56.470Z,12.2
2022-09-15T02:07:57.066Z,12.2
2022-09-15T02:08:57.669Z,12.2
2022-09-15T02:09:58.264Z,12.3
2022-09-15T02:10:58.866Z,12.2
2022-09-15T02:11:59.460Z,12.2
2022-09-15T02:13:00.060Z,12.2
2022-09-15T02:14:00.657Z,12.2
2022-09-15T02:15:01.257Z,12.2
2022-09-15T02:16:01.886Z,12.2
2022-09-15T02:17:02.456Z,12.2
2022-09-15T02:18:03.047Z,12.2
2022-09-15T02:19:03.646Z,12.2
2022-09-15T02:20:04.242Z,12.2
2022-09-15T02:21:04.841Z,12.2
2022-09-15T02:22:05.438Z,12.1
2022-09-15T02:23:06.038Z,12.1
2022-09-15T02:24:06.635Z,12.1
2022-09-15T02:25:07.232Z,12.2
2022-09-15T02:26:07.836Z,12.1
2022-09-15T02:27:08.454Z,12.2
2022-09-15T02:28:09.050Z,12.2
2022-09-15T02:29:09.650Z,12.1
2022-09-15T02:30:10.248Z,12.1
2022-09-15T02:31:10.885Z,12.1
2022-09-15T02:32:11.509Z,12.2
2022-09-15T02:33:12.062Z,12.2
2022-09-15T02:34:12.657Z,12.1
2022-09-15T02:35:13.255Z,12.1
2022-09-15T02:36:13.853Z,12.1
2022-09-15T02:37:14.452Z,12.0
2022-09-15T02:38:15.050Z,12.1
2022-09-15T02:39:15.652Z,12.0
2022-09-15T02:40:16.352Z,12.0
2022-09-15T02:41:16.883Z,12.0
2022-09-15T02:42:17.502Z,12.0
2022-09-15T02:43:18.102Z,12.0
2022-09-15T02:44:18.701Z,12.0
2022-09-15T02:45:19.353Z,11.9
2022-09-15T02:46:19.900Z,11.8
2022-09-15T02:47:20.517Z,11.9
2022-09-15T02:48:21.207Z,11.8
2022-09-15T02:49:21.729Z,11.8
2022-09-15T02:50:22.329Z,11.8
2022-09-15T02:51:22.925Z,11.8
2022-09-15T02:52:23.523Z,11.8
2022-09-15T02:53:24.120Z,11.7
2022-09-15T02:54:24.719Z,11.8
2022-09-15T02:55:25.316Z,11.7
2022-09-15T02:56:25.915Z,11.7
2022-09-15T02:57:26.515Z,11.6
2022-09-15T02:58:27.113Z,11.6
2022-09-15T02:59:27.712Z,11.6
2022-09-15T03:00:28.397Z,11.5
2022-09-15T03:01:29.070Z,11.5
2022-09-15T03:02:29.668Z,11.5
2022-09-15T03:03:30.272Z,11.6
2022-09-15T03:04:30.871Z,11.6
2022-09-15T03:05:31.471Z,11.6
2022-09-15T03:06:32.069Z,11.6
2022-09-15T03:07:32.669Z,11.5
2022-09-15T03:08:33.269Z,11.5
2022-09-15T03:09:33.870Z,11.5
2022-09-15T03:10:34.471Z,11.5
2022-09-15T03:11:35.067Z,11.5
2022-09-15T03:12:35.666Z,11.5
2022-09-15T03:13:36.264Z,11.5
2022-09-15T03:14:36.863Z,11.5
2022-09-15T03:15:37.469Z,11.4
2022-09-15T03:16:38.123Z,11.4
2022-09-15T03:17:38.683Z,11.3
2022-09-15T03:18:39.303Z,11.4
2022-09-15T03:19:39.901Z,11.4
2022-09-15T03:20:40.500Z,11.5
2022-09-15T03:21:41.105Z,11.4
2022-09-15T03:22:41.699Z,11.4
2022-09-15T03:23:42.300Z,11.4
2022-09-15T03:24:42.896Z,11.4
2022-09-15T03:25:43.494Z,11.4
2022-09-15T03:26:44.094Z,11.4
2022-09-15T03:27:44.694Z,11.4
2022-09-15T03:28:45.294Z,11.4
2022-09-15T03:29:45.893Z,11.5
2022-09-15T03:30:46.491Z,11.4
2022-09-15T03:31:47.136Z,11.5
2022-09-15T03:32:47.688Z,11.5
2022-09-15T03:33:48.286Z,11.5
2022-09-15T03:34:48.885Z,11.5
2022-09-15T03:35:49.492Z,11.6
2022-09-15T03:36:50.082Z,11.5
2022-09-15T03:37:50.684Z,11.6
2022-09-15T03:38:51.436Z,11.6
2022-09-15T03:39:52.090Z,11.6
2022-09-15T03:40:52.672Z,11.6
2022-09-15T03:41:53.270Z,11.6
2022-09-15T03:42:53.874Z,11.7
2022-09-15T03:43:54.468Z,11.8
2022-09-15T03:44:55.069Z,11.8
2022-09-15T03:45:55.725Z,11.8
2022-09-15T03:46:56.295Z,11.6
2022-09-15T03:47:56.892Z,11.7
2022-09-15T03:48:57.491Z,11.7
2022-09-15T03:49:58.089Z,11.6
2022-09-15T03:50:58.687Z,11.7
2022-09-15T03:51:59.284Z,11.6
2022-09-15T03:52:59.882Z,11.7
2022-09-15T03:54:00.480Z,11.6
2022-09-15T03:55:01.079Z,11.6
2022-09-15T03:56:01.677Z,11.7
2022-09-15T03:57:02.276Z,11.6
2022-09-15T03:58:02.876Z,11.6
2022-09-15T03:59:03.493Z,11.6
2022-09-15T04:00:04.091Z,11.6
2022-09-15T04:01:04.777Z,11.6
2022-09-15T04:02:05.433Z,11.6
2022-09-15T04:03:06.026Z,11.6
2022-09-15T04:04:06.621Z,11.7
2022-09-15T04:05:07.222Z,11.7
2022-09-15T04:06:07.821Z,11.7
2022-09-15T04:07:08.436Z,11.7
2022-09-15T04:08:09.037Z,11.6
2022-09-15T04:09:09.634Z,11.7
2022-09-15T04:10:10.233Z,11.6
2022-09-15T04:11:10.831Z,11.8
2022-09-15T04:12:11.430Z,11.8
2022-09-15T04:13:12.029Z,11.8
2022-09-15T04:14:12.627Z,11.8
2022-09-15T04:15:13.226Z,11.8
2022-09-15T04:16:13.879Z,11.8
2022-09-15T04:17:14.449Z,11.8
2022-09-15T04:18:15.049Z,11.8
2022-09-15T04:19:15.648Z,11.8
2022-09-15T04:20:16.245Z,11.8
2022-09-15T04:21:16.845Z,11.8
2022-09-15T04:22:18.097Z,11.8
2022-09-15T04:23:18.673Z,11.9
2022-09-15T04:24:19.270Z,11.8
2022-09-15T04:25:19.869Z,11.8
2022-09-15T04:26:20.465Z,11.8
2022-09-15T04:27:21.064Z,11.8
2022-09-15T04:28:21.663Z,12.0
2022-09-15T04:29:22.259Z,11.9
2022-09-15T04:30:22.857Z,11.9
2022-09-15T04:31:23.487Z,12.0
2022-09-15T04:32:24.073Z,12.0
2022-09-15T04:33:24.689Z,12.0
2022-09-15T04:34:25.287Z,12.0
2022-09-15T04:35:25.883Z,12.0
2022-09-15T04:36:26.479Z,12.0
2022-09-15T04:37:27.080Z,11.9
2022-09-15T04:38:27.673Z,12.0
2022-09-15T04:39:28.290Z,12.0
2022-09-15T04:40:28.937Z,12.0
2022-09-15T04:41:29.501Z,12.1
2022-09-15T04:42:30.097Z,12.0
2022-09-15T04:43:30.695Z,12.0
2022-09-15T04:44:31.293Z,12.0
2022-09-15T04:45:31.890Z,12.0
2022-09-15T04:46:32.556Z,12.0
2022-09-15T04:47:33.101Z,12.1
2022-09-15T04:48:33.700Z,12.0
2022-09-15T04:49:34.301Z,12.1
2022-09-15T04:50:34.901Z,12.1
2022-09-15T04:51:35.501Z,12.1
2022-09-15T04:52:36.139Z,12.1
2022-09-15T04:53:36.704Z,12.1
2022-09-15T04:54:37.300Z,12.1
2022-09-15T04:55:37.904Z,12.1
2022-09-15T04:56:38.501Z,12.1
2022-09-15T04:57:39.102Z,12.2
2022-09-15T04:58:39.700Z,12.1
2022-09-15T04:59:40.299Z,12.0
2022-09-15T05:00:40.944Z,12.1
2022-09-15T05:01:41.527Z,12.1
2022-09-15T05:02:42.101Z,12.1
2022-09-15T05:03:42.701Z,12.1
2022-09-15T05:04:43.304Z,12.2
2022-09-15T05:05:43.905Z,12.2
2022-09-15T05:06:44.505Z,12.2
2022-09-15T05:07:45.109Z,12.1
2022-09-15T05:08:45.706Z,12.2
2022-09-15T05:09:46.306Z,12.1
2022-09-15T05:10:46.908Z,12.1
2022-09-15T05:11:47.509Z,12.1
2022-09-15T05:12:48.128Z,12.2
2022-09-15T05:13:48.747Z,12.1
2022-09-15T05:14:49.347Z,12.2
2022-09-15T05:15:49.992Z,12.1
2022-09-15T05:16:50.548Z,12.2
2022-09-15T05:17:51.150Z,12.2
2022-09-15T05:18:51.749Z,12.2
2022-09-15T05:19:52.351Z,12.2
2022-09-15T05:20:52.961Z,12.2
2022-09-15T05:21:53.574Z,12.3
2022-09-15T05:22:54.176Z,12.2
2022-09-15T05:23:54.799Z,12.3
2022-09-15T05:24:55.398Z,12.3
2022-09-15T05:25:56.002Z,12.2
2022-09-15T05:26:56.601Z,12.3
2022-09-15T05:27:57.224Z,12.3
2022-09-15T05:28:57.827Z,12.2
2022-09-15T05:30:23.437Z,12.3
2022-09-15T05:31:00.070Z,12.3
2022-09-15T05:32:00.638Z,12.3
2022-09-15T05:33:01.239Z,12.3
2022-09-15T05:34:01.852Z,12.4
2022-09-15T05:35:02.441Z,12.4
2022-09-15T05:36:03.043Z,12.4
2022-09-15T05:37:03.644Z,12.3
2022-09-15T05:38:04.248Z,12.4
2022-09-15T05:39:04.847Z,12.4
2022-09-15T05:40:08.629Z,12.5
2022-09-15T05:41:07.046Z,12.5
2022-09-15T05:42:07.651Z,12.5
2022-09-15T05:43:08.250Z,12.5
2022-09-15T05:44:08.852Z,12.5
2022-09-15T05:45:09.453Z,12.5
2022-09-15T05:46:10.115Z,12.5
2022-09-15T05:47:10.690Z,12.5
2022-09-15T05:48:11.295Z,12.6
2022-09-15T05:49:11.895Z,12.6
2022-09-15T05:50:12.499Z,12.7
2022-09-15T05:51:13.100Z,12.6
2022-09-15T05:52:13.753Z,12.7
2022-09-15T05:53:14.355Z,12.7
2022-09-15T05:54:14.959Z,12.7
2022-09-15T05:55:15.563Z,12.8
2022-09-15T05:56:16.166Z,12.7
2022-09-15T05:57:16.770Z,12.8
2022-09-15T05:58:17.370Z,12.7
2022-09-15T05:59:17.970Z,12.8
2022-09-15T06:00:18.575Z,12.8
2022-09-15T06:01:19.177Z,12.9
2022-09-15T06:02:19.860Z,12.9
2022-09-15T06:03:20.485Z,12.9
2022-09-15T06:04:21.113Z,13.0
2022-09-15T06:05:21.714Z,12.9
2022-09-15T06:06:22.318Z,13.0
2022-09-15T06:07:22.922Z,13.0
2022-09-15T06:08:23.525Z,13.1
2022-09-15T06:09:24.127Z,13.1
2022-09-15T06:10:24.749Z,13.1
2022-09-15T06:11:25.353Z,13.1
2022-09-15T06:12:25.950Z,13.1
2022-09-15T06:13:26.551Z,13.1
2022-09-15T06:14:27.160Z,13.2
2022-09-15T06:15:27.756Z,13.1
2022-09-15T06:16:28.424Z,13.1
2022-09-15T06:17:29.004Z,13.3
2022-09-15T06:18:29.609Z,13.2
2022-09-15T06:19:30.204Z,13.3
2022-09-15T06:20:30.806Z,13.2
2022-09-15T06:21:31.407Z,13.1
2022-09-15T06:22:32.010Z,13.1
2022-09-15T06:23:32.606Z,13.1
2022-09-15T06:24:33.210Z,13.1
2022-09-15T06:25:33.809Z,13.1
2022-09-15T06:26:34.414Z,13.0
2022-09-15T06:27:35.013Z,13.1
2022-09-15T06:28:35.615Z,13.1
2022-09-15T06:29:36.234Z,13.1
2022-09-15T06:30:36.857Z,13.1
2022-09-15T06:31:37.509Z,13.1
2022-09-15T06:32:38.100Z,13.1
2022-09-15T06:33:38.723Z,13.1
2022-09-15T06:34:39.323Z,13.1
2022-09-15T06:35:39.925Z,13.3
2022-09-15T06:36:40.528Z,13.2
2022-09-15T06:37:41.150Z,13.2
2022-09-15T06:38:41.751Z,13.3
2022-09-15T06:39:42.351Z,13.3
2022-09-15T06:40:42.953Z,13.3
2022-09-15T06:42:01.367Z,13.4
2022-09-15T06:42:45.164Z,13.5
2022-09-15T06:43:45.766Z,13.5
2022-09-15T06:44:46.366Z,13.5
2022-09-15T06:45:47.046Z,13.4
2022-09-15T06:46:47.595Z,13.4
2022-09-15T06:48:02.079Z,13.4
2022-09-15T06:48:48.953Z,13.4
2022-09-15T06:49:49.509Z,13.4
2022-09-15T06:50:50.129Z,13.4
2022-09-15T06:51:50.731Z,13.4
2022-09-15T06:52:51.328Z,13.5
2022-09-15T06:53:51.928Z,13.5
2022-09-15T06:54:52.527Z,13.4
2022-09-15T06:55:53.126Z,13.4
2022-09-15T06:56:53.725Z,13.3
2022-09-15T06:57:54.343Z,13.5
2022-09-15T06:58:54.945Z,13.5
2022-09-15T06:59:55.541Z,13.5
2022-09-15T07:00:56.142Z,13.4
2022-09-15T07:01:57.547Z,13.5
2022-09-15T07:02:58.372Z,13.5
2022-09-15T07:03:58.949Z,13.5
2022-09-15T07:04:59.543Z,13.5
2022-09-15T07:06:00.145Z,13.5
2022-09-15T07:07:00.744Z,13.6
2022-09-15T07:08:01.345Z,13.7
2022-09-15T07:09:01.961Z,13.6
2022-09-15T07:10:02.562Z,13.6
2022-09-15T07:11:03.186Z,13.7
2022-09-15T07:12:03.784Z,13.7
2022-09-15T07:13:04.383Z,13.7
2022-09-15T07:14:04.985Z,13.7
2022-09-15T07:15:05.587Z,13.8
2022-09-15T07:16:06.251Z,13.6
2022-09-15T07:17:06.801Z,13.8
2022-09-15T07:18:07.403Z,13.7
2022-09-15T07:19:08.004Z,13.8
2022-09-15T07:20:08.607Z,13.8
2022-09-15T07:21:09.210Z,13.8
2022-09-15T07:22:09.808Z,13.9
2022-09-15T07:23:10.409Z,13.8
2022-09-15T07:24:11.012Z,13.8
2022-09-15T07:25:11.611Z,13.9
2022-09-15T07:26:12.213Z,14.0
2022-09-15T07:27:12.809Z,14.0
2022-09-15T07:28:13.419Z,14.0
2022-09-15T07:29:14.010Z,13.9
2022-09-15T07:30:14.611Z,14.1
2022-09-15T07:31:15.274Z,13.9
2022-09-15T07:32:15.899Z,14.0
2022-09-15T07:33:16.502Z,13.9
2022-09-15T07:34:17.103Z,14.0
2022-09-15T07:35:17.704Z,14.0
2022-09-15T07:36:18.304Z,14.0
2022-09-15T07:37:18.903Z,14.0
2022-09-15T07:38:19.504Z,14.0
2022-09-15T07:39:20.105Z,14.0
2022-09-15T07:40:20.735Z,14.1
2022-09-15T07:41:21.313Z,14.1
2022-09-15T07:42:21.918Z,14.3
2022-09-15T07:43:22.514Z,14.2
2022-09-15T07:44:23.117Z,14.4
2022-09-15T07:45:23.747Z,14.4
2022-09-15T07:46:24.318Z,14.5
2022-09-15T07:47:24.916Z,14.5
2022-09-15T07:48:26.567Z,14.5
2022-09-15T07:49:26.135Z,14.5
2022-09-15T07:50:26.736Z,14.6
2022-09-15T07:51:27.333Z,14.5
2022-09-15T07:52:27.935Z,14.5
2022-09-15T07:53:28.542Z,14.5
2022-09-15T07:54:29.134Z,14.5
2022-09-15T07:55:29.732Z,14.5
2022-09-15T07:56:30.341Z,14.4
2022-09-15T07:57:30.945Z,14.5
2022-09-15T07:58:31.548Z,14.5
2022-09-15T07:59:32.150Z,14.5
2022-09-15T08:00:32.846Z,14.6
2022-09-15T08:01:33.414Z,14.5
2022-09-15T08:02:33.966Z,14.5
2022-09-15T08:03:34.567Z,14.4
2022-09-15T08:04:35.168Z,14.4
2022-09-15T08:05:39.409Z,14.4
2022-09-15T08:06:36.404Z,14.4
2022-09-15T08:07:37.005Z,14.4
2022-09-15T08:08:37.605Z,14.5
2022-09-15T08:09:38.229Z,14.5
2022-09-15T08:10:38.845Z,14.5
2022-09-15T08:11:39.446Z,14.5
2022-09-15T08:12:40.046Z,14.5
2022-09-15T08:13:40.645Z,14.6
2022-09-15T08:14:41.246Z,14.7
2022-09-15T08:15:41.878Z,14.6
2022-09-15T08:16:42.447Z,14.7
2022-09-15T08:17:43.056Z,14.8
2022-09-15T08:18:43.646Z,14.9
2022-09-15T08:19:44.247Z,15.0
2022-09-15T08:20:44.851Z,15.2
2022-09-15T08:21:45.452Z,15.3
2022-09-15T08:22:46.055Z,15.5
2022-09-15T08:23:46.655Z,15.7
2022-09-15T08:24:47.257Z,15.8
2022-09-15T08:25:47.857Z,16.0
2022-09-15T08:26:48.460Z,16.2
2022-09-15T08:27:49.060Z,16.3
2022-09-15T08:28:49.664Z,16.1
2022-09-15T08:29:50.326Z,16.1
2022-09-15T08:30:50.983Z,16.2
2022-09-15T08:31:51.552Z,16.2
2022-09-15T08:32:52.171Z,16.4
2022-09-15T08:33:52.792Z,16.4
2022-09-15T08:34:53.396Z,16.4
2022-09-15T08:35:54.015Z,16.5
2022-09-15T08:36:54.617Z,16.9
2022-09-15T08:37:55.216Z,17.0
2022-09-15T08:38:55.819Z,17.1
2022-09-15T08:39:56.443Z,17.0
2022-09-15T08:40:57.020Z,17.1
2022-09-15T08:41:57.622Z,16.9
2022-09-15T08:42:58.246Z,16.9
2022-09-15T08:43:58.866Z,17.0
2022-09-15T08:44:59.474Z,17.2
2022-09-15T08:46:00.150Z,17.1
2022-09-15T08:47:00.725Z,17.1
2022-09-15T08:48:01.325Z,17.2
2022-09-15T08:49:03.098Z,17.3
2022-09-15T08:50:03.529Z,17.5
2022-09-15T08:51:04.129Z,17.3
2022-09-15T08:52:04.729Z,17.0
2022-09-15T08:53:05.331Z,16.9
2022-09-15T08:54:05.930Z,16.9
2022-09-15T08:55:06.532Z,16.7
2022-09-15T08:56:09.873Z,16.6
2022-09-15T08:57:07.747Z,16.8
2022-09-15T08:58:08.347Z,16.8
2022-09-15T08:59:08.949Z,16.9
2022-09-15T09:00:09.552Z,16.7
2022-09-15T09:01:10.278Z,16.6
2022-09-15T09:02:10.937Z,16.5
2022-09-15T09:03:11.557Z,16.6
2022-09-15T09:04:14.543Z,16.5
2022-09-15T09:05:13.727Z,16.5
2022-09-15T09:06:14.327Z,16.7
2022-09-15T09:07:14.932Z,16.7
2022-09-15T09:08:15.533Z,16.5
2022-09-15T09:09:16.134Z,16.7
2022-09-15T09:10:16.734Z,16.5
2022-09-15T09:11:17.336Z,16.6
2022-09-15T09:12:17.957Z,16.8
2022-09-15T09:13:18.578Z,17.0
2022-09-15T09:14:19.181Z,17.1
2022-09-15T09:15:19.783Z,17.5
2022-09-15T09:16:20.486Z,17.6
2022-09-15T09:17:21.081Z,17.9
2022-09-15T09:18:21.683Z,17.6
2022-09-15T09:19:22.288Z,17.3
2022-09-15T09:20:22.910Z,17.1
2022-09-15T09:21:23.511Z,17.1
2022-09-15T09:22:24.114Z,17.2
2022-09-15T09:23:24.715Z,17.3
2022-09-15T09:24:25.315Z,17.4
2022-09-15T09:25:28.221Z,17.5
2022-09-15T09:26:27.408Z,17.6
2022-09-15T09:27:28.008Z,17.9
2022-09-15T09:28:28.607Z,18.2
2022-09-15T09:29:29.210Z,18.2
2022-09-15T09:30:29.814Z,18.3
2022-09-15T09:31:30.466Z,18.5
2022-09-15T09:32:31.035Z,18.4
2022-09-15T09:33:31.639Z,18.3
2022-09-15T09:34:32.260Z,18.4
2022-09-15T09:35:32.863Z,18.3
2022-09-15T09:36:33.464Z,18.4
2022-09-15T09:37:34.068Z,18.4
2022-09-15T09:38:34.671Z,18.4
2022-09-15T09:39:35.275Z,18.3
2022-09-15T09:40:35.945Z,18.3
2022-09-15T09:41:36.520Z,18.3
2022-09-15T09:42:37.127Z,18.3
2022-09-15T09:43:37.718Z,18.2
2022-09-15T09:44:38.340Z,18.1
2022-09-15T09:45:38.942Z,17.9
2022-09-15T09:46:39.611Z,17.6
2022-09-15T09:47:40.176Z,17.5
2022-09-15T09:48:40.778Z,17.6
2022-09-15T09:49:41.381Z,17.6
2022-09-15T09:50:41.985Z,17.5
2022-09-15T09:51:42.592Z,17.5
2022-09-15T09:52:43.194Z,17.7
2022-09-15T09:53:43.851Z,17.8
2022-09-15T09:54:44.405Z,18.0
2022-09-15T09:55:45.011Z,18.2
2022-09-15T09:56:45.611Z,18.2
2022-09-15T09:57:46.214Z,18.1
2022-09-15T09:58:46.813Z,17.9
2022-09-15T09:59:47.418Z,17.7
2022-09-15T10:00:48.014Z,17.6
2022-09-15T10:01:48.682Z,17.8
2022-09-15T10:02:49.234Z,17.8
2022-09-15T10:03:49.881Z,17.8
2022-09-15T10:04:50.563Z,17.9
2022-09-15T10:05:51.096Z,17.8
2022-09-15T10:06:51.704Z,17.6
2022-09-15T10:07:52.300Z,17.4
2022-09-15T10:08:52.954Z,17.6
2022-09-15T10:09:53.559Z,17.8
2022-09-15T10:10:54.159Z,18.0
2022-09-15T10:11:54.758Z,18.2
2022-09-15T10:12:55.361Z,18.6
2022-09-15T10:13:55.980Z,18.4
2022-09-15T10:14:56.579Z,18.2
2022-09-15T10:15:57.182Z,18.1
2022-09-15T10:16:57.834Z,18.1
2022-09-15T10:17:58.401Z,18.1
2022-09-15T10:18:59.004Z,17.9
2022-09-15T10:19:59.608Z,17.8
2022-09-15T10:21:00.209Z,17.7
2022-09-15T10:22:00.830Z,17.7
2022-09-15T10:23:01.430Z,17.7
2022-09-15T10:24:02.042Z,17.5
2022-09-15T10:25:02.643Z,17.5
2022-09-15T10:26:03.246Z,17.5
2022-09-15T10:27:03.860Z,17.6
2022-09-15T10:28:04.469Z,17.6
2022-09-15T10:29:05.073Z,17.8
2022-09-15T10:30:05.694Z,17.9
2022-09-15T10:31:06.294Z,18.0
2022-09-15T10:32:06.976Z,18.2
2022-09-15T10:33:07.548Z,18.3
2022-09-15T10:34:08.165Z,18.2
2022-09-15T10:35:08.752Z,18.0
2022-09-15T10:36:09.354Z,17.9
2022-09-15T10:37:09.955Z,18.0
2022-09-15T10:38:10.558Z,18.2
2022-09-15T10:39:11.156Z,18.4
2022-09-15T10:40:11.850Z,18.8
2022-09-15T10:41:12.443Z,19.0
2022-09-15T10:42:13.047Z,19.2
2022-09-15T10:43:13.649Z,19.1
2022-09-15T10:44:14.251Z,19.2
2022-09-15T10:45:14.853Z,19.1
2022-09-15T10:46:15.523Z,19.1
2022-09-15T10:47:16.097Z,19.0
2022-09-15T10:48:16.695Z,19.1
2022-09-15T10:49:17.294Z,19.2
2022-09-15T10:50:17.897Z,19.3
2022-09-15T10:51:18.497Z,19.2
2022-09-15T10:52:19.099Z,19.0
2022-09-15T10:53:19.699Z,18.6
2022-09-15T10:54:20.303Z,18.5
2022-09-15T10:55:36.751Z,18.6
2022-09-15T10:56:22.501Z,18.4
2022-09-15T10:57:23.132Z,18.3
2022-09-15T10:58:23.726Z,18.2
2022-09-15T10:59:24.328Z,18.2
2022-09-15T11:00:24.931Z,18.3
2022-09-15T11:01:25.589Z,18.4
2022-09-15T11:02:26.220Z,18.5
2022-09-15T11:03:26.764Z,18.6
2022-09-15T11:04:27.367Z,18.6
2022-09-15T11:05:27.988Z,18.5
2022-09-15T11:06:28.598Z,18.4
2022-09-15T11:07:29.201Z,18.4
2022-09-15T11:08:29.804Z,18.5
2022-09-15T11:09:30.404Z,18.9
2022-09-15T11:10:31.008Z,19.1
2022-09-15T11:11:31.612Z,19.2
2022-09-15T11:12:32.214Z,19.3
2022-09-15T11:13:32.816Z,19.3
2022-09-15T11:14:33.416Z,19.4
2022-09-15T11:15:34.018Z,19.5
2022-09-15T11:16:34.718Z,19.4
2022-09-15T11:17:35.276Z,19.3
2022-09-15T11:18:35.878Z,19.1
2022-09-15T11:19:36.480Z,19.1
2022-09-15T11:20:37.080Z,18.8
2022-09-15T11:21:37.700Z,18.5
2022-09-15T11:22:38.302Z,18.6
2022-09-15T11:23:38.900Z,18.5
2022-09-15T11:24:39.501Z,18.6
2022-09-15T11:25:40.106Z,18.4
2022-09-15T11:26:40.706Z,18.6
2022-09-15T11:27:41.309Z,18.5
2022-09-15T11:28:41.912Z,18.6
2022-09-15T11:29:42.514Z,18.7
2022-09-15T11:30:47.545Z,18.5
2022-09-15T11:31:44.819Z,18.4
2022-09-15T11:32:45.443Z,18.3
2022-09-15T11:33:46.047Z,18.2
2022-09-15T11:34:46.646Z,18.1
2022-09-15T11:35:47.249Z,18.3
2022-09-15T11:36:47.851Z,18.5
2022-09-15T11:37:48.455Z,18.7
2022-09-15T11:38:49.063Z,18.9
2022-09-15T11:39:49.695Z,19.1
2022-09-15T11:40:50.264Z,19.2
2022-09-15T11:41:50.883Z,19.3
2022-09-15T11:42:51.484Z,19.3
2022-09-15T11:43:52.091Z,19.4
2022-09-15T11:44:52.696Z,19.3
2022-09-15T11:45:53.314Z,19.4
2022-09-15T11:46:53.949Z,19.5
2022-09-15T11:47:54.521Z,19.6
2022-09-15T11:48:55.119Z,19.6
2022-09-15T11:49:55.723Z,19.4
2022-09-15T11:50:56.324Z,19.3
2022-09-15T11:51:56.925Z,19.4
2022-09-15T11:52:57.529Z,19.5
2022-09-15T11:53:58.133Z,19.8
2022-09-15T11:54:58.735Z,20.0
2022-09-15T11:55:59.338Z,20.2
2022-09-15T11:56:59.939Z,20.2
2022-09-15T11:58:00.539Z,20.1
2022-09-15T11:59:01.140Z,19.9
2022-09-15T12:00:01.740Z,19.8
2022-09-15T12:01:02.341Z,19.5
2022-09-15T12:02:02.974Z,19.3
2022-09-15T12:03:03.626Z,19.0
2022-09-15T12:04:04.218Z,18.9
2022-09-15T12:05:04.843Z,18.8
2022-09-15T12:06:05.444Z,18.9
2022-09-15T12:07:08.721Z,18.9
2022-09-15T12:08:06.681Z,19.0
2022-09-15T12:09:07.280Z,19.0
2022-09-15T12:10:07.882Z,18.9
2022-09-15T12:11:08.503Z,18.8
2022-09-15T12:12:09.136Z,18.7
2022-09-15T12:13:09.702Z,18.4
2022-09-15T12:14:10.303Z,18.5
2022-09-15T12:15:10.905Z,18.5
2022-09-15T12:16:11.561Z,18.3
2022-09-15T12:17:12.134Z,18.3
2022-09-15T12:18:34.432Z,18.3
2022-09-15T12:19:13.351Z,18.3
2022-09-15T12:20:13.957Z,18.2
2022-09-15T12:21:14.555Z,18.3
2022-09-15T12:22:15.159Z,18.2
2022-09-15T12:23:15.758Z,18.2
2022-09-15T12:24:16.359Z,18.4
2022-09-15T12:25:16.961Z,18.3
2022-09-15T12:26:17.561Z,18.3
2022-09-15T12:27:18.163Z,18.4
2022-09-15T12:28:18.779Z,18.3
2022-09-15T12:29:19.361Z,18.3
2022-09-15T12:30:19.961Z,18.2
2022-09-15T12:31:20.577Z,18.2
2022-09-15T12:32:21.160Z,18.1
2022-09-15T12:33:21.758Z,18.0
2022-09-15T12:34:22.359Z,17.9
2022-09-15T12:35:22.963Z,17.9
2022-09-15T12:36:23.559Z,17.8
2022-09-15T12:37:24.159Z,17.9
2022-09-15T12:38:24.761Z,17.8
2022-09-15T12:39:25.360Z,17.8
2022-09-15T12:40:26.006Z,17.7
2022-09-15T12:41:26.567Z,17.7
2022-09-15T12:42:27.169Z,17.7
2022-09-15T12:43:27.771Z,17.8
2022-09-15T12:44:28.372Z,17.7
2022-09-15T12:45:28.975Z,17.6
2022-09-15T12:46:29.629Z,17.7
2022-09-15T12:47:30.196Z,17.6
2022-09-15T12:48:30.797Z,17.7
2022-09-15T12:49:31.401Z,17.6
2022-09-15T12:50:32.018Z,17.6
2022-09-15T12:51:32.617Z,17.6
2022-09-15T12:52:33.217Z,17.5
2022-09-15T12:54:34.427Z,17.6
2022-09-15T12:55:35.026Z,17.6
2022-09-15T12:56:35.630Z,17.6
2022-09-15T12:57:36.234Z,17.5
2022-09-15T12:58:36.843Z,17.7
2022-09-15T12:59:37.456Z,17.9
2022-09-15T13:00:42.376Z,18.2
2022-09-15T13:01:39.667Z,18.3
2022-09-15T13:02:40.302Z,18.3
2022-09-15T13:04:41.490Z,18.9
2022-09-15T13:05:42.090Z,18.7
2022-09-15T13:06:42.694Z,18.4
2022-09-15T13:07:43.297Z,18.3
2022-09-15T13:08:43.898Z,18.4
2022-09-15T13:09:44.498Z,18.6
2022-09-15T13:10:45.102Z,18.6
2022-09-15T13:12:46.309Z,18.4
2022-09-15T13:13:46.911Z,18.3
2022-09-15T13:14:47.511Z,17.8
2022-09-15T13:15:48.179Z,17.8
2022-09-15T13:16:48.732Z,17.6
2022-09-15T13:17:49.322Z,17.7
2022-09-15T13:18:49.925Z,17.8
2022-09-15T13:19:50.525Z,17.9
2022-09-15T13:20:51.126Z,17.9
2022-09-15T13:21:51.726Z,18.0
2022-09-15T13:22:52.326Z,17.9
2022-09-15T13:23:52.923Z,17.6
2022-09-15T13:24:57.698Z,17.5
2022-09-15T13:25:55.118Z,17.5
2022-09-15T13:26:55.720Z,17.4
2022-09-15T13:27:56.320Z,17.3
2022-09-15T13:28:57.066Z,17.1
2022-09-15T13:29:57.758Z,17.1